createdAt,value
2023-04-14T00:02:25.366Z,99514.83
2023-04-14T00:04:53.992Z,99517.93
2023-04-14T00:07:21.982Z,99521.45
2023-04-14T00:09:49.679Z,99519.66
2023-04-14T00:12:17.443Z,99525.30
2023-04-14T00:14:45.285Z,99526.41
2023-04-14T00:17:13.252Z,99528.38
2023-04-14T00:19:41.752Z,99529.05
2023-04-14T00:22:09.685Z,99529.20
2023-04-14T00:24:43.066Z,99527.70
2023-04-14T00:27:11.208Z,99525.67
2023-04-14T00:29:39.399Z,99526.15
2023-04-14T00:32:07.291Z,99522.30
2023-04-14T00:34:37.040Z,99521.92
2023-04-14T00:37:05.031Z,99520.59
2023-04-14T00:39:32.878Z,99522.20
2023-04-14T00:42:04.789Z,99520.92
2023-04-14T00:44:32.544Z,99523.61
2023-04-14T00:47:01.704Z,99521.50
2023-04-14T00:49:29.536Z,99516.02
2023-04-14T00:52:01.051Z,99515.00
2023-04-14T00:54:29.110Z,99513.55
2023-04-14T00:56:58.652Z,99510.31
2023-04-14T00:59:28.840Z,99504.11
2023-04-14T01:02:01.087Z,99502.55
2023-04-14T01:04:37.039Z,99501.75
2023-04-14T01:07:12.993Z,99502.11
2023-04-14T01:09:41.075Z,99500.76
2023-04-14T01:12:33.378Z,99501.04
2023-04-14T01:15:39.119Z,99504.65
2023-04-14T01:18:19.887Z,99506.02
2023-04-14T01:20:54.544Z,99508.73
2023-04-14T01:23:32.143Z,99508.58
2023-04-14T01:26:19.863Z,99511.25
2023-04-14T01:29:22.085Z,99508.86
2023-04-14T01:32:11.532Z,99515.91
2023-04-14T01:34:52.522Z,99516.73
2023-04-14T01:37:32.213Z,99519.86
2023-04-14T01:40:07.980Z,99524.66
2023-04-14T01:42:37.977Z,99526.29
2023-04-14T01:45:28.903Z,99525.08
2023-04-14T01:47:59.469Z,99524.70
2023-04-14T01:50:28.680Z,99523.62
2023-04-14T01:52:58.936Z,99530.28
2023-04-14T01:55:29.286Z,99531.04
2023-04-14T01:57:58.788Z,99528.11
2023-04-14T02:00:27.648Z,99526.67
2023-04-14T02:02:57.124Z,99521.90
2023-04-14T02:05:26.203Z,99524.77
2023-04-14T02:07:55.799Z,99522.08
2023-04-14T02:10:24.495Z,99523.70
2023-04-14T02:12:58.451Z,99524.82
2023-04-14T02:21:42.850Z,99522.77
2023-04-14T02:24:10.814Z,99522.89
2023-04-14T02:26:45.584Z,99524.54
2023-04-14T02:29:16.405Z,99526.33
2023-04-14T02:31:49.870Z,99525.48
2023-04-14T02:34:23.961Z,99525.92
2023-04-14T02:36:57.604Z,99521.48
2023-04-14T02:39:41.859Z,99523.98
2023-04-14T02:42:17.831Z,99520.30
2023-04-14T02:44:51.730Z,99520.19
2023-04-14T02:47:27.201Z,99519.67
2023-04-14T02:50:00.612Z,99521.77
2023-04-14T02:52:32.920Z,99523.08
2023-04-14T02:55:02.895Z,99522.98
2023-04-14T02:57:33.155Z,99521.75
2023-04-14T03:00:06.211Z,99517.16
2023-04-14T03:02:38.322Z,99519.11
2023-04-14T03:05:07.928Z,99522.20
2023-04-14T03:07:37.671Z,99522.86
2023-04-14T03:10:07.124Z,99525.70
2023-04-14T03:12:36.173Z,99526.17
2023-04-14T03:15:09.511Z,99529.20
2023-04-14T03:17:38.204Z,99529.48
2023-04-14T03:20:07.092Z,99527.82
2023-04-14T03:22:40.687Z,99525.31
2023-04-14T03:25:10.074Z,99530.79
2023-04-14T03:27:40.484Z,99532.48
2023-04-14T03:30:10.788Z,99530.45
2023-04-14T03:32:42.350Z,99529.87
2023-04-14T03:35:13.067Z,99530.23
2023-04-14T03:37:44.817Z,99527.64
2023-04-14T03:40:15.553Z,99535.14
2023-04-14T03:42:46.320Z,99534.30
2023-04-14T03:45:14.074Z,99532.24
2023-04-14T03:47:42.104Z,99538.83
2023-04-14T03:50:11.413Z,99543.41
2023-04-14T03:52:43.815Z,99543.13
2023-04-14T03:55:12.706Z,99546.07
2023-04-14T03:57:43.953Z,99546.34
2023-04-14T04:00:17.070Z,99549.76
2023-04-14T04:02:46.598Z,99552.72
2023-04-14T04:05:15.177Z,99553.12
2023-04-14T04:07:45.184Z,99555.35
2023-04-14T04:10:20.606Z,99558.55
2023-04-14T04:12:50.786Z,99558.23
2023-04-14T04:15:18.705Z,99557.65
2023-04-14T04:17:50.255Z,99554.79
2023-04-14T04:20:19.386Z,99555.71
2023-04-14T04:22:51.556Z,99556.13
2023-04-14T04:25:19.998Z,99559.98
2023-04-14T04:27:49.809Z,99559.39
2023-04-14T04:30:19.011Z,99563.30
2023-04-14T04:32:47.890Z,99562.45
2023-04-14T04:35:17.370Z,99566.73
2023-04-14T04:37:46.334Z,99567.27
2023-04-14T04:40:25.676Z,99572.70
2023-04-14T04:42:53.926Z,99575.83
2023-04-14T04:45:53.678Z,99582.02
2023-04-14T04:48:21.544Z,99580.77
2023-04-14T04:50:49.669Z,99585.58
2023-04-14T04:53:17.403Z,99584.44
2023-04-14T04:56:40.631Z,99585.25
2023-04-14T04:59:09.535Z,99588.94
2023-04-14T05:02:07.323Z,99587.92
2023-04-14T05:04:35.735Z,99583.46
2023-04-14T05:07:03.620Z,99583.98
2023-04-14T05:09:31.381Z,99582.92
2023-04-14T05:11:59.200Z,99577.66
2023-04-14T05:15:16.834Z,99584.71
2023-04-14T05:17:44.589Z,99581.64
2023-04-14T05:20:13.215Z,99575.50
2023-04-14T05:22:41.622Z,99580.01
2023-04-14T05:25:09.478Z,99579.18
2023-04-14T05:29:45.850Z,99580.44
2023-04-14T05:33:17.370Z,99581.06
2023-04-14T05:47:17.202Z,99580.27
2023-04-14T05:50:04.258Z,99583.04
2023-04-14T05:53:45.626Z,99585.62
2023-04-14T05:57:22.575Z,99588.77
2023-04-14T06:01:04.232Z,99588.38
2023-04-14T06:04:45.554Z,99590.06
2023-04-14T06:08:45.554Z,99596.62
2023-04-14T06:12:01.531Z,99600.77
2023-04-14T06:16:00.305Z,99604.89
2023-04-14T06:19:21.712Z,99609.61
2023-04-14T06:23:04.769Z,99609.30
2023-04-14T06:26:54.982Z,99613.68
2023-04-14T06:30:35.962Z,99613.40
2023-04-14T06:34:16.276Z,99605.26
2023-04-14T06:37:48.171Z,99610.11
2023-04-14T06:41:27.663Z,99607.92
2023-04-14T06:44:46.503Z,99611.46
2023-04-14T06:48:27.375Z,99610.76
2023-04-14T06:52:05.770Z,99610.88
2023-04-14T06:56:11.019Z,99609.47
2023-04-14T06:59:29.683Z,99612.45
2023-04-14T07:03:00.160Z,99613.83
2023-04-14T07:06:39.086Z,99609.86
2023-04-14T07:10:23.371Z,99603.91
2023-04-14T07:13:56.179Z,99604.84
2023-04-14T07:18:00.633Z,99605.06
2023-04-14T07:25:37.528Z,99603.85
2023-04-14T07:28:56.586Z,99602.64
2023-04-14T07:32:33.538Z,99609.20
2023-04-14T07:36:14.452Z,99614.36
2023-04-14T07:40:12.266Z,99609.44
2023-04-14T07:43:35.236Z,99617.70
2023-04-14T07:47:17.168Z,99617.26
2023-04-14T07:50:50.370Z,99613.33
2023-04-14T07:54:46.890Z,99615.22
2023-04-14T07:58:05.341Z,99620.64
2023-04-14T08:01:42.961Z,99622.23
2023-04-14T08:05:22.706Z,99624.11
2023-04-14T08:09:05.499Z,99630.14
2023-04-14T08:12:44.241Z,99635.42
2023-04-14T08:16:41.083Z,99634.30
2023-04-14T08:20:22.302Z,99635.55
2023-04-14T08:23:56.691Z,99636.15
2023-04-14T08:41:39.250Z,99640.87
2023-04-14T08:45:02.198Z,99639.90
2023-04-14T08:48:50.928Z,99641.70
2023-04-14T08:52:16.405Z,99638.20
2023-04-14T08:56:19.269Z,99641.43
2023-04-14T08:59:07.189Z,99636.14
2023-04-14T09:02:45.844Z,99630.77
2023-04-14T09:06:38.799Z,99629.63
2023-04-14T09:10:14.124Z,99627.38
2023-04-14T09:14:09.829Z,99626.02
2023-04-14T09:27:56.043Z,99618.71
2023-04-14T09:31:04.681Z,99621.90
2023-04-14T09:35:14.706Z,99621.05
2023-04-14T09:38:12.564Z,99619.69
2023-04-14T09:41:47.897Z,99614.38
2023-04-14T09:55:54.986Z,99627.13
2023-04-14T09:58:50.573Z,99629.20
2023-04-14T10:02:50.781Z,99621.02
2023-04-14T10:06:22.942Z,99612.11
2023-04-14T10:09:39.454Z,99603.44
2023-04-14T10:13:31.790Z,99601.68
2023-04-14T10:16:58.126Z,99603.25
2023-04-14T10:20:37.691Z,99602.98
2023-04-14T10:25:53.415Z,99600.98
2023-04-14T10:39:28.053Z,99603.55
2023-04-14T10:42:41.211Z,99605.80
2023-04-14T10:56:29.980Z,99606.73
2023-04-14T11:10:48.681Z,99594.26
2023-04-14T11:13:33.798Z,99583.89
2023-04-14T11:17:29.665Z,99584.77
2023-04-14T11:21:17.979Z,99578.84
2023-04-14T11:35:09.778Z,99569.93
2023-04-14T13:16:12.030Z,99501.27
2023-04-14T13:18:17.618Z,99503.71
2023-04-14T13:21:53.013Z,99498.88
2023-04-14T13:25:00.099Z,99504.02
2023-04-14T13:48:20.541Z,99499.00
2023-04-14T14:01:53.047Z,99490.70
2023-04-14T14:04:53.625Z,99486.34
2023-04-14T14:08:40.959Z,99493.30
2023-04-14T14:12:00.172Z,99487.77
2023-04-14T14:15:46.313Z,99492.40
2023-04-14T14:19:23.349Z,99486.29
2023-04-14T14:23:20.979Z,99486.42
2023-04-14T14:26:50.535Z,99488.11
2023-04-14T14:30:09.087Z,99488.10
2023-04-14T14:33:47.985Z,99484.57
2023-04-14T14:36:15.987Z,99486.16
2023-04-14T14:38:47.909Z,99497.48
2023-04-14T14:41:18.638Z,99490.89
2023-04-14T14:43:46.427Z,99492.59
2023-04-14T14:46:14.432Z,99494.53
2023-04-14T14:48:42.354Z,99498.02
2023-04-14T14:51:10.457Z,99488.89
2023-04-14T14:53:39.065Z,99490.77
2023-04-14T14:56:07.474Z,99495.00
2023-04-14T14:58:35.302Z,99489.83
2023-04-14T15:01:06.105Z,99488.64
2023-04-14T15:03:35.413Z,99489.65
2023-04-14T15:06:15.922Z,99495.36
2023-04-14T15:08:46.346Z,99502.39
2023-04-14T15:11:20.013Z,99498.74
2023-04-14T15:13:49.260Z,99502.10
2023-04-14T15:16:17.110Z,99505.59
2023-04-14T15:18:44.839Z,99504.91
2023-04-14T15:21:16.620Z,99496.80
2023-04-14T15:23:45.628Z,99493.55
2023-04-14T15:26:21.274Z,99489.98
2023-04-14T16:09:06.770Z,99493.20
2023-04-14T16:22:18.457Z,99487.99
2023-04-14T16:24:46.705Z,99490.55
2023-04-14T16:33:16.161Z,99497.60
2023-04-14T16:35:43.872Z,99497.77
2023-04-14T16:38:12.226Z,99502.10
2023-04-14T16:40:40.142Z,99502.44
2023-04-14T16:43:09.598Z,99506.80
2023-04-14T16:45:37.386Z,99502.42
2023-04-14T16:48:05.388Z,99506.91
2023-04-14T16:50:37.124Z,99504.72
2023-04-14T16:53:04.859Z,99506.59
2023-04-14T16:55:35.437Z,99506.46
2023-04-14T16:58:03.614Z,99510.67
2023-04-14T17:00:31.742Z,99509.23
2023-04-14T17:02:59.898Z,99511.27
2023-04-14T17:05:28.056Z,99514.05
2023-04-14T17:07:55.938Z,99517.09
2023-04-14T17:10:25.582Z,99514.67
2023-04-14T17:12:53.954Z,99517.54
2023-04-14T17:15:21.865Z,99521.11
2023-04-14T17:17:49.604Z,99523.91
2023-04-14T17:20:17.409Z,99516.08
2023-04-14T17:22:47.577Z,99514.89
2023-04-14T17:25:19.305Z,99519.79
2023-04-14T17:27:47.756Z,99526.46
2023-04-14T17:30:18.153Z,99529.25
2023-04-14T17:32:49.721Z,99526.88
2023-04-14T17:35:17.774Z,99525.88
2023-04-14T17:37:46.107Z,99528.30
2023-04-14T17:40:17.519Z,99530.27
2023-04-14T17:42:45.956Z,99530.52
2023-04-14T17:45:13.802Z,99533.20
2023-04-14T17:47:42.691Z,99535.02
2023-04-14T17:50:11.829Z,99540.16
2023-04-14T17:52:40.159Z,99545.82
2023-04-14T17:55:09.101Z,99545.23
2023-04-14T17:57:37.760Z,99545.41
2023-04-14T18:00:28.473Z,99546.30
2023-04-14T18:03:01.813Z,99552.41
2023-04-14T18:05:31.255Z,99554.61
2023-04-14T18:08:01.406Z,99560.60
2023-04-14T18:10:29.504Z,99556.86
2023-04-14T18:12:57.847Z,99560.80
2023-04-14T18:15:25.764Z,99556.48
2023-04-14T18:18:11.606Z,99555.67
2023-04-14T18:20:39.990Z,99556.91
2023-04-14T18:23:07.791Z,99560.76
2023-04-14T18:28:06.593Z,99566.35
2023-04-14T18:30:34.559Z,99567.71
2023-04-14T18:33:02.526Z,99571.20
2023-04-14T18:35:30.243Z,99571.80
2023-04-14T18:37:59.327Z,99576.38
2023-04-14T18:40:27.837Z,99577.89
2023-04-14T18:42:57.264Z,99579.15
2023-04-14T18:45:26.648Z,99579.91
2023-04-14T18:47:54.530Z,99579.92
2023-04-14T18:50:22.204Z,99578.11
2023-04-14T18:52:50.128Z,99579.83
2023-04-14T18:55:19.186Z,99581.86
2023-04-14T18:57:48.444Z,99579.69
2023-04-14T19:00:16.841Z,99577.66
2023-04-14T19:02:44.693Z,99583.00
2023-04-14T19:05:13.241Z,99582.52
2023-04-14T19:07:41.036Z,99590.52
2023-04-14T19:10:10.770Z,99587.55
2023-04-14T19:12:40.494Z,99591.00
2023-04-14T19:15:08.947Z,99594.66
2023-04-14T19:17:38.016Z,99595.20
2023-04-14T19:20:07.391Z,99592.70
2023-04-14T19:22:38.361Z,99592.86
2023-04-14T19:25:06.548Z,99592.04
2023-04-14T19:27:36.120Z,99591.20
2023-04-14T19:30:05.079Z,99591.02
2023-04-14T19:32:36.019Z,99591.98
2023-04-14T19:35:06.372Z,99588.02
2023-04-14T19:37:34.947Z,99591.51
2023-04-14T19:40:06.165Z,99593.70
2023-04-14T19:42:34.093Z,99586.94
2023-04-14T19:45:02.153Z,99587.78
2023-04-14T19:47:30.097Z,99583.54
2023-04-14T19:49:59.775Z,99578.71
2023-04-14T19:52:28.252Z,99582.34
2023-04-14T19:54:56.881Z,99582.95
2023-04-14T19:57:24.588Z,99586.98
2023-04-14T19:59:52.356Z,99584.00
2023-04-14T20:02:20.094Z,99588.70
2023-04-14T20:04:48.440Z,99586.68
2023-04-14T20:07:16.241Z,99586.38
2023-04-14T20:09:46.615Z,99587.54
2023-04-14T20:12:14.374Z,99589.54
2023-04-14T20:14:42.125Z,99587.27
2023-04-14T20:17:09.758Z,99588.42
2023-04-14T20:19:38.012Z,99588.48
2023-04-14T20:22:05.693Z,99586.02
2023-04-14T20:24:33.917Z,99592.14
2023-04-14T20:27:01.570Z,99592.82
2023-04-14T20:29:30.740Z,99594.81
2023-04-14T20:31:58.724Z,99596.94
2023-04-14T20:34:26.707Z,99593.90
2023-04-14T20:36:55.170Z,99597.23
2023-04-14T20:39:23.056Z,99592.23
2023-04-14T20:41:51.729Z,99594.81
2023-04-14T20:44:19.433Z,99594.02
2023-04-14T20:46:48.212Z,99592.83
2023-04-14T20:49:16.180Z,99584.49
2023-04-14T20:51:46.758Z,99581.16
2023-04-14T20:54:14.451Z,99582.67
2023-04-14T20:56:42.152Z,99584.20
2023-04-14T20:59:10.353Z,99576.81
2023-04-14T21:01:39.051Z,99576.27
2023-04-14T21:04:07.081Z,99580.42
2023-04-14T21:06:35.303Z,99580.52
2023-04-14T21:09:03.986Z,99575.71
2023-04-14T21:11:32.522Z,99573.55
2023-04-14T21:15:29.029Z,99575.66
2023-04-14T21:16:48.177Z,99569.98
2023-04-14T21:19:16.329Z,99571.23
2023-04-14T21:21:43.985Z,99564.23
2023-04-14T21:24:14.699Z,99564.96
2023-04-14T21:26:42.480Z,99558.88
2023-04-14T21:29:10.202Z,99551.59
2023-04-14T21:31:38.646Z,99552.95
2023-04-14T21:34:06.469Z,99550.56
2023-04-14T21:36:34.678Z,99555.38
2023-04-14T21:39:04.185Z,99561.98
2023-04-14T21:41:35.765Z,99568.03
2023-04-14T21:44:04.168Z,99569.91
2023-04-14T21:46:34.811Z,99570.40
2023-04-14T21:49:02.906Z,99570.29
2023-04-14T21:51:30.727Z,99563.79
2023-04-14T21:53:58.652Z,99565.73
2023-04-14T21:56:26.369Z,99573.21
2023-04-14T21:58:54.613Z,99569.36
2023-04-14T22:01:23.759Z,99572.30
2023-04-14T22:03:51.910Z,99573.54
2023-04-14T22:06:21.234Z,99565.64
2023-04-14T22:08:49.008Z,99568.00
2023-04-14T22:11:19.069Z,99567.63
2023-04-14T22:13:47.773Z,99559.78
2023-04-14T22:16:16.405Z,99556.17
2023-04-14T22:18:45.472Z,99553.63
2023-04-14T22:21:15.390Z,99550.64
2023-04-14T22:23:43.830Z,99543.38
2023-04-14T22:26:12.586Z,99539.45
2023-04-14T22:28:41.366Z,99542.81
2023-04-14T22:31:09.716Z,99542.66
2023-04-14T22:33:37.492Z,99554.38
2023-04-14T22:36:07.015Z,99550.33
2023-04-14T22:38:34.791Z,99549.04
2023-04-14T22:41:02.490Z,99549.33
2023-04-14T22:43:30.129Z,99554.52
2023-04-14T22:45:58.024Z,99553.91
2023-04-14T22:48:25.804Z,99552.88
2023-04-14T22:50:53.440Z,99554.73
2023-04-14T22:53:21.096Z,99559.79
2023-04-14T22:55:48.799Z,99555.56
2023-04-14T22:58:17.667Z,99559.81
2023-04-14T23:00:46.200Z,99560.23
2023-04-14T23:03:14.037Z,99556.77
2023-04-14T23:05:41.970Z,99556.42
2023-04-14T23:08:10.260Z,99553.31
2023-04-14T23:10:38.511Z,99552.13
2023-04-14T23:13:06.364Z,99552.31
2023-04-14T23:15:34.044Z,99549.39
2023-04-14T23:18:02.293Z,99555.96
2023-04-14T23:20:32.088Z,99552.06
2023-04-14T23:22:59.692Z,99548.70
2023-04-14T23:25:27.801Z,99548.33
2023-04-14T23:27:55.500Z,99545.80
2023-04-14T23:30:23.215Z,99551.61
2023-04-14T23:32:50.932Z,99552.07
2023-04-14T23:35:18.647Z,99551.93
2023-04-14T23:37:46.286Z,99551.50
2023-04-14T23:40:14.323Z,99554.45
2023-04-14T23:42:41.984Z,99551.42
2023-04-14T23:45:09.809Z,99559.09
2023-04-14T23:47:37.622Z,99553.46
2023-04-14T23:50:05.819Z,99554.48
2023-04-14T23:52:36.005Z,99554.20
2023-04-14T23:55:03.936Z,99553.44
2023-04-14T23:57:31.575Z,99555.67
2023-04-14T23:59:59.187Z,99555.13
